createdAt,value
2018-09-06T00:00:17.915Z,979.2
2018-09-06T00:01:19.320Z,979.2
2018-09-06T00:02:20.469Z,979.2
2018-09-06T00:03:21.976Z,979.1
2018-09-06T00:04:23.301Z,979.2
2018-09-06T00:05:24.856Z,979
2018-09-06T00:06:26.296Z,979.2
2018-09-06T00:07:27.910Z,979.1
2018-09-06T00:08:29.162Z,979.1
2018-09-06T00:09:30.393Z,979.2
2018-09-06T00:10:31.544Z,979.2
2018-09-06T00:11:32.684Z,979
2018-09-06T00:12:33.796Z,979.2
2018-09-06T00:13:34.926Z,979.1
2018-09-06T00:14:36.045Z,979.1
2018-09-06T00:15:37.192Z,979.1
2018-09-06T00:16:38.315Z,979.1
2018-09-06T00:17:39.436Z,979.1
2018-09-06T00:18:40.629Z,979
2018-09-06T00:19:41.787Z,979.1
2018-09-06T00:20:42.954Z,979.1
2018-09-06T00:21:44.061Z,979.1
2018-09-06T00:22:45.184Z,979.1
2018-09-06T00:23:46.319Z,979.1
2018-09-06T00:24:47.445Z,979
2018-09-06T00:25:48.627Z,979
2018-09-06T00:26:49.908Z,978.8
2018-09-06T00:27:53.308Z,979
2018-09-06T00:28:54.466Z,978.8
2018-09-06T00:29:55.588Z,979
2018-09-06T00:30:56.720Z,979
2018-09-06T00:31:57.844Z,979
2018-09-06T00:32:58.972Z,979
2018-09-06T00:34:00.096Z,978.9
2018-09-06T00:35:01.257Z,978.9
2018-09-06T00:36:02.469Z,978.9
2018-09-06T00:37:03.615Z,978.9
2018-09-06T00:38:04.740Z,978.9
2018-09-06T00:39:05.868Z,978.9
2018-09-06T00:40:07.020Z,978.9
2018-09-06T00:41:08.518Z,978.9
2018-09-06T00:42:09.648Z,978.9
2018-09-06T00:43:10.800Z,978.9
2018-09-06T00:44:11.957Z,978.9
2018-09-06T00:45:13.092Z,978.9
2018-09-06T00:46:15.440Z,978.7
2018-09-06T00:47:16.601Z,978.9
2018-09-06T00:48:17.737Z,978.8
2018-09-06T00:49:18.915Z,978.9
2018-09-06T00:50:20.068Z,978.8
2018-09-06T00:51:21.324Z,978.8
2018-09-06T00:52:22.502Z,978.9
2018-09-06T00:53:23.673Z,978.9
2018-09-06T00:54:25.143Z,978.8
2018-09-06T00:55:26.276Z,978.8
2018-09-06T00:56:27.432Z,978.8
2018-09-06T00:57:28.578Z,978.8
2018-09-06T00:58:29.708Z,978.8
2018-09-06T00:59:30.918Z,978.8
2018-09-06T01:00:32.068Z,978.7
2018-09-06T01:01:33.256Z,978.8
2018-09-06T01:02:34.412Z,978.8
2018-09-06T01:03:35.564Z,978.8
2018-09-06T01:04:36.743Z,978.7
2018-09-06T01:05:37.889Z,978.7
2018-09-06T01:06:39.061Z,978.7
2018-09-06T01:07:40.232Z,978.8
2018-09-06T01:08:41.346Z,978.7
2018-09-06T01:09:42.534Z,978.7
2018-09-06T01:10:43.662Z,978.7
2018-09-06T01:11:44.815Z,978.7
2018-09-06T01:12:45.935Z,978.6
2018-09-06T01:13:47.083Z,978.6
2018-09-06T01:14:48.251Z,978.6
2018-09-06T01:15:49.380Z,978.5
2018-09-06T01:16:50.537Z,978.6
2018-09-06T01:17:51.704Z,978.6
2018-09-06T01:18:52.826Z,978.6
2018-09-06T01:19:53.972Z,978.6
2018-09-06T01:20:55.093Z,978.6
2018-09-06T01:21:56.239Z,978.5
2018-09-06T01:22:57.345Z,978.5
2018-09-06T01:23:58.462Z,978.5
2018-09-06T01:24:59.620Z,978.4
2018-09-06T01:26:00.764Z,978.5
2018-09-06T01:27:01.992Z,978.5
2018-09-06T01:28:03.292Z,978.5
2018-09-06T01:29:04.434Z,978.5
2018-09-06T01:30:05.576Z,978.5
2018-09-06T01:31:06.727Z,978.5
2018-09-06T01:32:08.053Z,978.5
2018-09-06T01:33:09.222Z,978.5
2018-09-06T01:34:10.399Z,978.5
2018-09-06T01:35:11.526Z,978.5
2018-09-06T01:36:12.660Z,978.5
2018-09-06T01:37:16.296Z,978.4
2018-09-06T01:38:17.517Z,978.5
2018-09-06T01:39:18.697Z,978.4
2018-09-06T01:40:22.359Z,978.5
2018-09-06T01:41:23.488Z,978.1
2018-09-06T01:42:24.684Z,978.4
2018-09-06T01:43:25.823Z,978.4
2018-09-06T01:44:28.009Z,978.5
2018-09-06T01:45:29.184Z,978.4
2018-09-06T01:46:30.317Z,978.5
2018-09-06T01:47:31.476Z,978.4
2018-09-06T01:48:32.603Z,978.4
2018-09-06T01:49:33.742Z,978.4
2018-09-06T01:50:34.913Z,978.4
2018-09-06T01:51:36.021Z,978.4
2018-09-06T01:52:37.568Z,978.4
2018-09-06T01:53:38.660Z,978.4
2018-09-06T01:54:39.791Z,978.3
2018-09-06T01:55:40.922Z,978.4
2018-09-06T01:56:42.039Z,978.3
2018-09-06T01:57:43.220Z,978.3
2018-09-06T01:58:44.360Z,978.4
2018-09-06T01:59:45.496Z,978.1
2018-09-06T02:00:46.611Z,978.3
2018-09-06T02:01:48.108Z,978.4
2018-09-06T02:02:49.249Z,978.3
2018-09-06T02:03:50.365Z,978.3
2018-09-06T02:04:51.500Z,978.3
2018-09-06T02:05:53.010Z,978.3
2018-09-06T02:06:54.185Z,978.2
2018-09-06T02:07:55.326Z,978.2
2018-09-06T02:08:56.474Z,978.3
2018-09-06T02:09:57.612Z,978.3
2018-09-06T02:10:58.769Z,978.3
2018-09-06T02:11:59.885Z,978.3
2018-09-06T02:13:01.029Z,978.3
2018-09-06T02:14:02.157Z,978.2
2018-09-06T02:15:03.304Z,978.2
2018-09-06T02:16:04.443Z,978.2
2018-09-06T02:17:05.572Z,978.2
2018-09-06T02:18:06.747Z,978
2018-09-06T02:19:10.269Z,978.1
2018-09-06T02:20:11.396Z,978.1
2018-09-06T02:21:12.542Z,978.1
2018-09-06T02:22:13.706Z,978.2
2018-09-06T02:23:14.891Z,978.2
2018-09-06T02:24:16.037Z,978.2
2018-09-06T02:25:17.144Z,978.1
2018-09-06T02:26:18.279Z,978.2
2018-09-06T02:27:19.463Z,978.2
2018-09-06T02:28:20.628Z,978.2
2018-09-06T02:29:21.745Z,978.2
2018-09-06T02:30:22.901Z,978.1
2018-09-06T02:31:24.014Z,978.2
2018-09-06T02:32:25.166Z,978.2
2018-09-06T02:33:26.387Z,978.2
2018-09-06T02:34:27.524Z,978.2
2018-09-06T02:35:28.719Z,978.2
2018-09-06T02:36:29.889Z,978.2
2018-09-06T02:37:31.070Z,978.2
2018-09-06T02:38:32.250Z,978.1
2018-09-06T02:39:33.364Z,978.1
2018-09-06T02:40:34.512Z,978.1
2018-09-06T02:41:35.657Z,978.1
2018-09-06T02:42:36.814Z,978.1
2018-09-06T02:43:37.944Z,978.1
2018-09-06T02:44:39.045Z,978.1
2018-09-06T02:45:40.164Z,978.1
2018-09-06T02:46:41.629Z,978.1
2018-09-06T02:47:42.779Z,978.1
2018-09-06T02:48:43.976Z,978
2018-09-06T02:49:45.140Z,978
2018-09-06T02:50:46.281Z,978
2018-09-06T02:51:47.407Z,977.9
2018-09-06T02:52:48.548Z,978
2018-09-06T02:53:50.023Z,978
2018-09-06T02:54:51.140Z,978
2018-09-06T02:55:52.252Z,978
2018-09-06T02:56:53.393Z,978
2018-09-06T02:57:54.553Z,978
2018-09-06T02:58:55.971Z,978
2018-09-06T02:59:57.093Z,977.9
2018-09-06T03:00:58.251Z,977.9
2018-09-06T03:01:59.380Z,978
2018-09-06T03:03:00.521Z,978
2018-09-06T03:04:01.664Z,978
2018-09-06T03:05:02.808Z,978
2018-09-06T03:06:03.936Z,978
2018-09-06T03:07:05.062Z,978
2018-09-06T03:08:06.168Z,978
2018-09-06T03:09:07.332Z,978
2018-09-06T03:10:08.463Z,978
2018-09-06T03:11:09.648Z,977.8
2018-09-06T03:12:11.095Z,977.9
2018-09-06T03:13:12.260Z,977.9
2018-09-06T03:14:13.467Z,978
2018-09-06T03:15:14.638Z,978
2018-09-06T03:16:15.761Z,977.9
2018-09-06T03:17:16.912Z,977.9
2018-09-06T03:18:18.050Z,978
2018-09-06T03:19:19.252Z,978
2018-09-06T03:20:20.418Z,978
2018-09-06T03:21:21.574Z,978
2018-09-06T03:22:22.726Z,977.9
2018-09-06T03:23:23.883Z,977.9
2018-09-06T03:24:25.092Z,977.9
2018-09-06T03:25:26.224Z,977.9
2018-09-06T03:26:27.371Z,978
2018-09-06T03:27:28.499Z,977.9
2018-09-06T03:28:29.630Z,977.9
2018-09-06T03:29:30.800Z,977.7
2018-09-06T03:30:31.922Z,977.9
2018-09-06T03:31:33.136Z,977.9
2018-09-06T03:32:34.314Z,977.8
2018-09-06T03:33:35.452Z,977.9
2018-09-06T03:34:36.629Z,977.8
2018-09-06T03:35:37.771Z,977.8
2018-09-06T03:36:38.891Z,977.9
2018-09-06T03:37:40.039Z,977.9
2018-09-06T03:38:41.176Z,977.9
2018-09-06T03:39:42.343Z,977.9
2018-09-06T03:40:43.515Z,977.9
2018-09-06T03:41:44.964Z,977.9
2018-09-06T03:42:46.119Z,977.8
2018-09-06T03:43:47.259Z,977.8
2018-09-06T03:44:48.436Z,977.8
2018-09-06T03:45:49.558Z,977.8
2018-09-06T03:46:50.716Z,977.8
2018-09-06T03:47:51.851Z,977.8
2018-09-06T03:48:53.014Z,977.8
2018-09-06T03:49:54.186Z,977.8
2018-09-06T03:50:55.332Z,977.8
2018-09-06T03:51:56.456Z,977.7
2018-09-06T03:52:57.594Z,977.7
2018-09-06T03:53:58.727Z,977.7
2018-09-06T03:54:59.899Z,977.7
2018-09-06T03:56:01.032Z,977.7
2018-09-06T03:57:02.172Z,977.7
2018-09-06T03:58:03.333Z,977.7
2018-09-06T03:59:04.440Z,977.7
2018-09-06T04:00:05.582Z,977.7
2018-09-06T04:01:06.712Z,977.7
2018-09-06T04:02:07.985Z,977.6
2018-09-06T04:03:09.125Z,977.7
2018-09-06T04:04:10.286Z,977.8
2018-09-06T04:05:11.423Z,977.7
2018-09-06T04:06:12.892Z,977.7
2018-09-06T04:07:13.999Z,977.8
2018-09-06T04:08:18.168Z,977.8
2018-09-06T04:09:20.001Z,977.8
2018-09-06T04:10:21.202Z,977.8
2018-09-06T04:11:22.325Z,977.7
2018-09-06T04:12:23.461Z,977.8
2018-09-06T04:13:24.595Z,977.7
2018-09-06T04:14:25.721Z,977.8
2018-09-06T04:15:26.896Z,977.7
2018-09-06T04:16:28.022Z,977.7
2018-09-06T04:17:32.166Z,977.7
2018-09-06T04:18:33.849Z,977.7
2018-09-06T04:19:35.021Z,977.7
2018-09-06T04:20:36.453Z,977.7
2018-09-06T04:21:37.665Z,977.7
2018-09-06T04:22:38.796Z,977.7
2018-09-06T04:23:39.940Z,977.7
2018-09-06T04:24:41.080Z,977.7
2018-09-06T04:25:42.249Z,977.7
2018-09-06T04:26:43.440Z,977.7
2018-09-06T04:27:44.566Z,977.7
2018-09-06T04:28:45.752Z,977.7
2018-09-06T04:29:46.885Z,977.7
2018-09-06T04:30:48.083Z,977.8
2018-09-06T04:31:49.208Z,977.7
2018-09-06T04:32:50.372Z,977.7
2018-09-06T04:33:51.485Z,977.5
2018-09-06T04:34:52.613Z,977.7
2018-09-06T04:35:53.876Z,977.6
2018-09-06T04:36:55.052Z,977.7
2018-09-06T04:37:56.207Z,977.7
2018-09-06T04:38:57.307Z,977.7
2018-09-06T04:39:58.436Z,977.6
2018-09-06T04:40:59.619Z,977.7
2018-09-06T04:42:00.764Z,977.7
2018-09-06T04:43:01.927Z,977.8
2018-09-06T04:44:03.076Z,977.7
2018-09-06T04:45:04.189Z,977.7
2018-09-06T04:46:05.369Z,977.7
2018-09-06T04:47:06.497Z,977.7
2018-09-06T04:48:07.703Z,977.7
2018-09-06T04:49:09.024Z,977.6
2018-09-06T04:50:12.633Z,977.7
2018-09-06T04:51:13.862Z,977.7
2018-09-06T04:52:15.032Z,977.7
2018-09-06T04:53:16.242Z,977.7
2018-09-06T04:54:17.390Z,977.7
2018-09-06T04:55:18.633Z,977.7
2018-09-06T04:56:19.860Z,977.7
2018-09-06T04:57:21.076Z,977.7
2018-09-06T04:58:22.276Z,977.7
2018-09-06T04:59:24.714Z,977.7
2018-09-06T05:00:27.088Z,977.7
2018-09-06T05:01:28.239Z,977.7
2018-09-06T05:02:29.432Z,977.7
2018-09-06T05:03:30.594Z,977.6
2018-09-06T05:04:31.751Z,977.6
2018-09-06T05:05:32.879Z,977.6
2018-09-06T05:06:34.089Z,977.2
2018-09-06T05:07:35.273Z,977.6
2018-09-06T05:08:36.416Z,977.6
2018-09-06T05:09:37.533Z,977.6
2018-09-06T05:10:38.793Z,977.6
2018-09-06T05:11:40.282Z,977.4
2018-09-06T05:12:42.865Z,977.6
2018-09-06T05:13:44.174Z,977.5
2018-09-06T05:14:45.356Z,977.6
2018-09-06T05:15:46.636Z,977.6
2018-09-06T05:16:47.856Z,977.6
2018-09-06T05:17:49.131Z,977.6
2018-09-06T05:18:50.361Z,977.6
2018-09-06T05:19:51.512Z,977.6
2018-09-06T05:20:52.672Z,977.6
2018-09-06T05:21:53.882Z,977.7
2018-09-06T05:22:54.993Z,977.6
2018-09-06T05:23:56.218Z,977.6
2018-09-06T05:24:57.341Z,977.6
2018-09-06T05:25:58.556Z,977.6
2018-09-06T05:26:59.784Z,977.6
2018-09-06T05:28:03.668Z,977.6
2018-09-06T05:29:04.899Z,977.6
2018-09-06T05:30:06.052Z,977.6
2018-09-06T05:31:07.178Z,977.6
2018-09-06T05:32:08.660Z,977.5
2018-09-06T05:33:09.788Z,977.5
2018-09-06T05:34:11.028Z,977.5
2018-09-06T05:35:12.232Z,977.5
2018-09-06T05:36:13.464Z,977.4
2018-09-06T05:37:14.908Z,977.5
2018-09-06T05:38:21.062Z,977.5
2018-09-06T05:39:22.990Z,977.5
2018-09-06T05:40:24.276Z,977.5
2018-09-06T05:41:25.439Z,977.5
2018-09-06T05:42:26.626Z,977.5
2018-09-06T05:43:27.772Z,977.4
2018-09-06T05:44:31.972Z,977.5
2018-09-06T05:45:38.836Z,977.5
2018-09-06T05:46:39.950Z,977.5
2018-09-06T05:47:43.977Z,977.3
2018-09-06T05:48:45.137Z,977.5
2018-09-06T05:49:46.257Z,977.5
2018-09-06T05:50:47.428Z,977.5
2018-09-06T05:51:48.600Z,977.5
2018-09-06T05:52:54.545Z,977.5
2018-09-06T05:53:55.717Z,977.5
2018-09-06T05:54:56.917Z,977.5
2018-09-06T05:55:58.068Z,977.5
2018-09-06T05:56:59.196Z,977.4
2018-09-06T05:58:00.510Z,977.4
2018-09-06T05:59:01.627Z,977.5
2018-09-06T06:00:03.009Z,977.5
2018-09-06T06:01:04.113Z,977.5
2018-09-06T06:02:05.271Z,977.5
2018-09-06T06:03:06.801Z,977.4
2018-09-06T06:04:07.991Z,977.4
2018-09-06T06:05:09.171Z,977.2
2018-09-06T06:06:10.291Z,977.4
2018-09-06T06:07:11.432Z,977.4
2018-09-06T06:08:12.599Z,977.4
2018-09-06T06:09:13.829Z,977.4
2018-09-06T06:10:14.963Z,977.3
2018-09-06T06:11:16.113Z,977.3
2018-09-06T06:12:18.874Z,977.4
2018-09-06T06:13:20.075Z,977.3
2018-09-06T06:14:21.229Z,977.3
2018-09-06T06:15:22.397Z,977.3
2018-09-06T06:16:23.720Z,977
2018-09-06T06:17:25.631Z,977.3
2018-09-06T06:18:26.792Z,977.3
2018-09-06T06:19:27.944Z,977.3
2018-09-06T06:20:29.112Z,977.3
2018-09-06T06:21:30.285Z,977.2
2018-09-06T06:22:31.439Z,977
2018-09-06T06:23:32.598Z,977.2
2018-09-06T06:24:33.854Z,977.2
2018-09-06T06:25:34.994Z,977.2
2018-09-06T06:26:36.156Z,977.3
2018-09-06T06:27:37.305Z,977.2
2018-09-06T06:28:38.469Z,977.2
2018-09-06T06:29:39.599Z,977.2
2018-09-06T06:30:40.742Z,977.2
2018-09-06T06:31:41.905Z,977.2
2018-09-06T06:32:43.052Z,977.2
2018-09-06T06:33:44.231Z,977.1
2018-09-06T06:34:45.441Z,977.2
2018-09-06T06:35:46.571Z,977.1
2018-09-06T06:36:47.721Z,977
2018-09-06T06:37:48.883Z,977.2
2018-09-06T06:38:50.069Z,977.2
2018-09-06T06:39:51.280Z,977.2
2018-09-06T06:40:53.916Z,977.2
2018-09-06T06:41:55.081Z,977.2
2018-09-06T06:42:56.213Z,977.2
2018-09-06T06:43:57.405Z,977.2
2018-09-06T06:44:58.578Z,977.2
2018-09-06T06:46:02.023Z,977.1
2018-09-06T06:47:03.181Z,977.2
2018-09-06T06:48:04.709Z,977.2
2018-09-06T06:49:05.896Z,977.2
2018-09-06T06:50:09.499Z,977.1
2018-09-06T06:51:10.636Z,977.2
2018-09-06T06:52:11.792Z,977.1
2018-09-06T06:53:14.306Z,977
2018-09-06T06:54:15.771Z,976.8
2018-09-06T06:55:16.916Z,977
2018-09-06T06:56:20.818Z,977
2018-09-06T06:57:21.993Z,977
2018-09-06T06:58:23.186Z,976.9
2018-09-06T06:59:24.353Z,977
2018-09-06T07:00:25.530Z,977
2018-09-06T07:01:29.212Z,977
2018-09-06T07:02:30.405Z,976.8
2018-09-06T07:03:31.618Z,977
2018-09-06T07:04:33.193Z,976.9
2018-09-06T07:05:34.337Z,977
2018-09-06T07:06:35.460Z,977
2018-09-06T07:07:36.649Z,976.9
2018-09-06T07:08:37.833Z,976.9
2018-09-06T07:09:41.756Z,976.9
2018-09-06T07:10:42.994Z,976.9
2018-09-06T07:11:44.199Z,976.9
2018-09-06T07:12:45.373Z,977
2018-09-06T07:13:51.503Z,977
2018-09-06T07:14:52.792Z,976.9
2018-09-06T07:15:53.930Z,976.9
2018-09-06T07:16:55.083Z,977
2018-09-06T07:17:56.221Z,977
2018-09-06T07:18:57.347Z,976.9
2018-09-06T07:19:58.562Z,976.8
2018-09-06T07:20:59.772Z,977
2018-09-06T07:22:04.009Z,977
2018-09-06T07:23:05.175Z,977
2018-09-06T07:24:06.345Z,976.9
2018-09-06T07:25:07.655Z,976.9
2018-09-06T07:26:09.291Z,976.8
2018-09-06T07:27:10.482Z,977
2018-09-06T07:28:11.703Z,976.9
2018-09-06T07:29:14.926Z,976.7
2018-09-06T07:30:16.110Z,976.9
2018-09-06T07:31:24.070Z,977
2018-09-06T07:32:25.250Z,977
2018-09-06T07:33:26.432Z,977
2018-09-06T07:34:28.717Z,977
2018-09-06T07:35:29.911Z,977
2018-09-06T07:36:35.674Z,976.8
2018-09-06T07:37:36.795Z,976.8
2018-09-06T07:38:37.965Z,976.9
2018-09-06T07:39:39.118Z,976.9
2018-09-06T07:40:40.296Z,976.9
2018-09-06T07:41:41.477Z,976.9
2018-09-06T07:42:45.106Z,976.7
2018-09-06T07:43:46.239Z,976.8
2018-09-06T07:44:47.372Z,976.8
2018-09-06T07:45:48.557Z,976.8
2018-09-06T07:46:49.712Z,976.8
2018-09-06T07:47:50.864Z,976.7
2018-09-06T07:48:55.562Z,976.8
2018-09-06T07:49:56.730Z,976.7
2018-09-06T07:50:57.953Z,976.6
2018-09-06T07:51:59.097Z,976.7
2018-09-06T07:53:01.365Z,976.7
2018-09-06T07:54:05.876Z,976.8
2018-09-06T07:55:07.169Z,976.8
2018-09-06T07:56:08.379Z,976.7
2018-09-06T07:57:09.596Z,976.4
2018-09-06T07:58:10.776Z,976.7
2018-09-06T07:59:11.943Z,976.8
2018-09-06T08:00:13.184Z,976.7
2018-09-06T08:01:14.494Z,976.7
2018-09-06T08:02:15.877Z,976.8
2018-09-06T08:03:17.077Z,976.7
2018-09-06T08:04:18.305Z,976.6
2018-09-06T08:05:19.905Z,976.4
2018-09-06T08:06:21.247Z,976.7
2018-09-06T08:07:22.395Z,976.7
2018-09-06T08:08:23.537Z,976.7
2018-09-06T08:09:25.996Z,976.5
2018-09-06T08:10:27.128Z,976.7
2018-09-06T08:11:28.356Z,976.7
2018-09-06T08:12:30.656Z,976.6
2018-09-06T08:13:37.156Z,976.7
2018-09-06T08:14:38.264Z,976.5
2018-09-06T08:15:39.422Z,976.7
2018-09-06T08:16:41.369Z,976.7
2018-09-06T08:17:42.579Z,976.7
2018-09-06T08:18:43.724Z,976.7
2018-09-06T08:19:47.944Z,976.7
2018-09-06T08:20:51.970Z,976.7
2018-09-06T08:21:55.606Z,976.7
2018-09-06T08:22:56.841Z,976.7
2018-09-06T08:23:57.996Z,976.7
2018-09-06T08:25:02.049Z,976.7
2018-09-06T08:26:06.195Z,976.8
2018-09-06T08:27:07.389Z,976.8
2018-09-06T08:28:09.354Z,976.6
2018-09-06T08:29:10.535Z,976.7
2018-09-06T08:30:14.464Z,976.7
2018-09-06T08:31:15.644Z,976.6
2018-09-06T08:32:22.712Z,976.6
2018-09-06T08:33:23.880Z,976.7
2018-09-06T08:34:27.418Z,976.6
2018-09-06T08:35:28.652Z,976.6
2018-09-06T08:36:29.829Z,976.6
2018-09-06T08:37:31.404Z,976.6
2018-09-06T08:38:32.796Z,976.5
2018-09-06T08:39:34.057Z,976.6
2018-09-06T08:40:35.220Z,976.6
2018-09-06T08:41:36.401Z,976.8
2018-09-06T08:42:37.573Z,976.9
2018-09-06T08:43:38.726Z,976.9
2018-09-06T08:44:39.925Z,976.8
2018-09-06T08:45:41.056Z,976.5
2018-09-06T08:46:42.169Z,976.6
2018-09-06T08:47:43.712Z,976.4
2018-09-06T08:48:44.896Z,976.7
2018-09-06T08:49:46.143Z,976.6
2018-09-06T08:50:52.733Z,976.6
2018-09-06T08:51:53.897Z,976.6
2018-09-06T08:52:55.091Z,976.6
2018-09-06T08:53:56.218Z,976.8
2018-09-06T08:54:57.377Z,976.5
2018-09-06T08:55:58.530Z,976.5
2018-09-06T08:56:59.679Z,976.6
2018-09-06T08:58:01.299Z,976.6
2018-09-06T08:59:02.482Z,976.7
2018-09-06T09:00:03.688Z,976.6
2018-09-06T09:01:04.950Z,976.8
2018-09-06T09:02:13.916Z,976.9
2018-09-06T09:03:17.757Z,976.8
2018-09-06T09:04:21.116Z,976.5
2018-09-06T09:05:24.439Z,976.4
2018-09-06T09:06:28.071Z,976.5
2018-09-06T09:07:29.280Z,976.5
2018-09-06T09:08:32.297Z,976.5
2018-09-06T09:09:33.379Z,976.5
2018-09-06T09:10:36.890Z,976.7
2018-09-06T09:11:38.107Z,976.5
2018-09-06T09:12:40.019Z,976.2
2018-09-06T09:13:41.214Z,976.6
2018-09-06T09:14:42.340Z,976.6
2018-09-06T09:15:45.163Z,976.8
2018-09-06T09:16:46.400Z,976.6
2018-09-06T09:17:47.518Z,976.6
2018-09-06T09:18:48.725Z,976.6
2018-09-06T09:19:49.880Z,976.4
2018-09-06T09:20:51.016Z,976.4
2018-09-06T09:21:52.184Z,976.4
2018-09-06T09:22:56.272Z,976.5
2018-09-06T09:23:57.474Z,976.4
2018-09-06T09:24:58.676Z,976.4
2018-09-06T09:25:59.838Z,976.4
2018-09-06T09:27:00.989Z,976.3
2018-09-06T09:28:07.328Z,976.3
2018-09-06T09:29:12.624Z,976.3
2018-09-06T09:30:13.774Z,976.3
2018-09-06T09:31:17.064Z,976.4
2018-09-06T09:32:18.262Z,976.3
2018-09-06T09:33:19.460Z,976.3
2018-09-06T09:34:20.676Z,976.5
2018-09-06T09:35:21.844Z,976.6
2018-09-06T09:36:23.020Z,976.2
2018-09-06T09:37:28.405Z,976.2
2018-09-06T09:38:29.597Z,976.1
2018-09-06T09:39:30.792Z,976.2
2018-09-06T09:40:34.425Z,976.1
2018-09-06T09:41:38.585Z,976.1
2018-09-06T09:42:42.201Z,976.1
2018-09-06T09:43:43.367Z,976.1
2018-09-06T09:44:44.596Z,976.1
2018-09-06T09:45:45.809Z,976.1
2018-09-06T09:47:46.982Z,976.3
2018-09-06T09:48:48.133Z,976.1
2018-09-06T09:49:49.959Z,976.1
2018-09-06T09:50:51.113Z,976
2018-09-06T09:51:52.351Z,976
2018-09-06T09:52:53.447Z,976
2018-09-06T09:53:54.615Z,975.8
2018-09-06T09:54:55.875Z,976.1
2018-09-06T09:55:57.048Z,976
2018-09-06T09:56:58.197Z,976
2018-09-06T09:57:59.353Z,975.9
2018-09-06T09:59:00.528Z,975.9
2018-09-06T10:00:01.861Z,975.9
2018-09-06T10:01:03.112Z,975.9
2018-09-06T10:02:04.697Z,975.9
2018-09-06T10:03:05.821Z,976
2018-09-06T10:04:09.724Z,975.9
2018-09-06T10:05:10.908Z,976
2018-09-06T10:06:12.039Z,975.8
2018-09-06T10:07:13.182Z,976
2018-09-06T10:08:15.387Z,975.7
2018-09-06T10:09:16.559Z,975.7
2018-09-06T10:10:17.764Z,975.8
2018-09-06T10:11:18.905Z,975.8
2018-09-06T10:12:20.061Z,975.8
2018-09-06T10:13:21.257Z,975.8
2018-09-06T10:14:22.422Z,975.8
2018-09-06T10:15:25.795Z,975.8
2018-09-06T10:16:29.756Z,975.8
2018-09-06T10:17:30.987Z,975.8
2018-09-06T10:18:34.330Z,975.8
2018-09-06T10:19:35.536Z,975.8
2018-09-06T10:20:36.791Z,975.8
2018-09-06T10:21:39.247Z,975.8
2018-09-06T10:22:40.423Z,975.8
2018-09-06T10:23:41.537Z,975.6
2018-09-06T10:24:42.760Z,975.7
2018-09-06T10:25:43.945Z,975.8
2018-09-06T10:26:46.016Z,975.7
2018-09-06T10:27:47.133Z,975.8
2018-09-06T10:28:48.308Z,975.8
2018-09-06T10:29:49.432Z,975.5
2018-09-06T10:30:50.605Z,975.8
2018-09-06T10:31:51.754Z,975.7
2018-09-06T10:32:53.598Z,975.7
2018-09-06T10:33:57.013Z,975.7
2018-09-06T10:34:58.520Z,975.8
2018-09-06T10:36:00.290Z,975.8
2018-09-06T10:37:02.964Z,975.8
2018-09-06T10:38:06.286Z,975.7
2018-09-06T10:39:07.417Z,975.7
2018-09-06T10:40:08.863Z,975.7
2018-09-06T10:41:09.986Z,975.5
2018-09-06T10:42:15.407Z,975.5
2018-09-06T10:43:16.648Z,975.5
2018-09-06T10:44:20.601Z,975.6
2018-09-06T10:45:21.849Z,975.7
2018-09-06T10:46:23.311Z,975.6
2018-09-06T10:47:24.523Z,975.6
2018-09-06T10:48:25.741Z,975.6
2018-09-06T10:49:27.014Z,975.6
2018-09-06T10:50:28.258Z,975.6
2018-09-06T10:51:30.805Z,975.5
2018-09-06T10:52:34.829Z,975.5
2018-09-06T10:53:35.982Z,975.5
2018-09-06T10:54:39.314Z,975.6
2018-09-06T10:55:41.817Z,975.3
2018-09-06T10:56:46.031Z,975.5
2018-09-06T10:57:47.223Z,975.6
2018-09-06T10:58:48.376Z,975.6
2018-09-06T10:59:55.749Z,975.5
2018-09-06T11:00:59.611Z,975.6
2018-09-06T11:02:01.186Z,975.5
2018-09-06T11:03:08.150Z,975.5
2018-09-06T11:04:09.359Z,975.3
2018-09-06T11:05:13.764Z,975.5
2018-09-06T11:06:14.995Z,975.4
2018-09-06T11:07:18.383Z,975.5
2018-09-06T11:08:19.603Z,975.5
2018-09-06T11:09:20.785Z,975.5
2018-09-06T11:10:24.985Z,975.5
2018-09-06T11:11:26.148Z,975.5
2018-09-06T11:12:27.408Z,975.5
2018-09-06T11:13:40.495Z,975.5
2018-09-06T11:14:41.672Z,975.5
2018-09-06T11:15:46.097Z,975.6
2018-09-06T11:16:47.392Z,975.6
2018-09-06T11:17:51.444Z,975.5
2018-09-06T11:18:52.588Z,975.5
2018-09-06T11:19:53.781Z,975.5
2018-09-06T11:20:58.786Z,975.5
2018-09-06T11:22:00.083Z,975.4
2018-09-06T11:23:03.314Z,975.5
2018-09-06T11:24:13.309Z,975.6
2018-09-06T11:25:14.672Z,975.5
2018-09-06T11:26:15.989Z,975.5
2018-09-06T11:27:20.160Z,975.5
2018-09-06T11:28:23.931Z,975.5
2018-09-06T11:29:25.092Z,975.5
2018-09-06T11:30:26.287Z,975.5
2018-09-06T11:31:27.452Z,975.4
2018-09-06T11:32:32.759Z,975.5
2018-09-06T11:33:33.973Z,975.5
2018-09-06T11:34:35.122Z,975.5
2018-09-06T11:35:36.257Z,975.4
2018-09-06T11:36:40.464Z,975.4
2018-09-06T11:37:44.141Z,975.4
2018-09-06T11:38:45.399Z,975.4
2018-09-06T11:39:46.547Z,975.4
2018-09-06T11:40:47.785Z,975.3
2018-09-06T11:41:49.023Z,975.1
2018-09-06T11:42:50.200Z,975.3
2018-09-06T11:43:53.913Z,975.3
2018-09-06T11:44:55.107Z,975.3
2018-09-06T11:45:56.256Z,975.2
2018-09-06T11:47:05.013Z,975.1
2018-09-06T11:48:06.259Z,975.3
2018-09-06T11:49:07.474Z,975.2
2018-09-06T11:50:09.116Z,975.2
2018-09-06T11:51:10.690Z,974.9
2018-09-06T11:52:11.869Z,975.2
2018-09-06T11:53:12.984Z,975.2
2018-09-06T11:54:14.147Z,975.2
2018-09-06T11:55:15.396Z,975.2
2018-09-06T11:56:16.610Z,975.2
2018-09-06T11:57:17.784Z,975.1
2018-09-06T11:58:18.938Z,975.1
2018-09-06T11:59:20.184Z,975.1
2018-09-06T12:00:21.436Z,975.1
2018-09-06T12:01:22.581Z,975
2018-09-06T12:02:23.748Z,975
2018-09-06T12:03:25.021Z,975.1
2018-09-06T12:04:26.247Z,975.1
2018-09-06T12:05:29.965Z,975
2018-09-06T12:06:34.102Z,975
2018-09-06T12:07:36.023Z,975
2018-09-06T12:08:40.236Z,974.9
2018-09-06T12:09:42.456Z,975
2018-09-06T12:10:43.694Z,975
2018-09-06T12:11:47.061Z,975.1
2018-09-06T12:12:48.219Z,974.8
2018-09-06T12:13:52.209Z,974.7
2018-09-06T12:14:56.123Z,974.9
2018-09-06T12:15:59.783Z,975
2018-09-06T12:17:03.778Z,974.9
2018-09-06T12:18:06.290Z,974.9
2018-09-06T12:19:07.483Z,974.9
2018-09-06T12:20:08.814Z,974.9
2018-09-06T12:21:10.019Z,974.9
2018-09-06T12:22:11.185Z,974.9
2018-09-06T12:23:12.320Z,974.9
2018-09-06T12:24:13.441Z,974.9
2018-09-06T12:25:14.667Z,974.9
2018-09-06T12:26:17.040Z,974.9
2018-09-06T12:27:18.212Z,974.9
2018-09-06T12:28:22.173Z,975
2018-09-06T12:29:28.518Z,974.9
2018-09-06T12:30:32.334Z,974.9
2018-09-06T12:31:33.572Z,975
2018-09-06T12:32:34.791Z,975
2018-09-06T12:33:36.300Z,974.9
2018-09-06T12:34:37.445Z,974.9
2018-09-06T12:35:38.616Z,974.9
2018-09-06T12:36:39.741Z,974.9
2018-09-06T12:37:40.909Z,974.9
2018-09-06T12:38:45.436Z,974.9
2018-09-06T12:39:46.509Z,974.9
2018-09-06T12:40:47.793Z,974.9
2018-09-06T12:41:48.985Z,974.9
2018-09-06T12:42:50.155Z,974.9
2018-09-06T12:43:51.280Z,974.9
2018-09-06T12:44:52.515Z,974.9
2018-09-06T12:45:55.986Z,974.7
2018-09-06T12:46:57.130Z,974.8
2018-09-06T12:47:58.268Z,974.9
2018-09-06T12:49:04.516Z,974.9
2018-09-06T12:50:05.770Z,974.8
2018-09-06T12:51:07.963Z,974.8
2018-09-06T12:52:09.168Z,974.8
2018-09-06T12:53:10.329Z,974.8
2018-09-06T12:54:11.488Z,974.8
2018-09-06T12:55:16.862Z,974.8
2018-09-06T12:56:18.114Z,974.7
2018-09-06T12:57:19.267Z,974.8
2018-09-06T12:58:20.437Z,974.7
2018-09-06T12:59:21.609Z,974.7
2018-09-06T13:00:24.998Z,974.7
2018-09-06T13:01:26.277Z,974.7
2018-09-06T13:02:28.087Z,974.7
2018-09-06T13:03:29.247Z,974.7
2018-09-06T13:04:30.454Z,974.7
2018-09-06T13:05:34.065Z,974.7
2018-09-06T13:06:35.331Z,974.7
2018-09-06T13:07:38.540Z,974.7
2018-09-06T13:08:39.684Z,974.7
2018-09-06T13:09:45.639Z,974.6
2018-09-06T13:10:46.806Z,974.7
2018-09-06T13:11:53.823Z,974.6
2018-09-06T13:12:57.891Z,974.6
2018-09-06T13:13:59.071Z,974.4
2018-09-06T13:15:02.911Z,974.6
2018-09-06T13:16:04.696Z,974.6
2018-09-06T13:17:06.647Z,974.6
2018-09-06T13:18:10.993Z,974.6
2018-09-06T13:19:14.642Z,974.7
2018-09-06T13:20:15.862Z,974.7